createdAt,value
2018-01-30T00:01:45.131Z,6.45
2018-01-30T00:04:13.772Z,6.49
2018-01-30T00:06:42.267Z,6.52
2018-01-30T00:09:10.770Z,6.59
2018-01-30T00:11:39.402Z,6.40
2018-01-30T00:14:08.662Z,6.68
2018-01-30T00:16:37.151Z,6.80
2018-01-30T00:19:05.844Z,6.73
2018-01-30T00:21:34.338Z,6.99
2018-01-30T00:24:02.856Z,7.10
2018-01-30T00:26:31.592Z,7.16
2018-01-30T00:29:00.091Z,7.21
2018-01-30T00:31:29.422Z,7.32
2018-01-30T00:33:57.960Z,7.25
2018-01-30T00:36:26.505Z,7.29
2018-01-30T00:38:54.999Z,7.32
2018-01-30T00:41:23.635Z,7.38
2018-01-30T00:43:52.899Z,7.33
2018-01-30T00:46:21.390Z,7.17
2018-01-30T00:48:50.198Z,7.12
2018-01-30T00:51:19.519Z,7.02
2018-01-30T00:53:48.011Z,7.03
2018-01-30T00:56:16.554Z,7.18
2018-01-30T00:58:45.807Z,7.24
2018-01-30T01:01:14.346Z,7.23
2018-01-30T01:03:43.663Z,7.45
2018-01-30T01:06:12.979Z,7.56
2018-01-30T01:08:41.471Z,7.26
2018-01-30T01:11:10.011Z,7.19
2018-01-30T01:13:39.287Z,7.29
2018-01-30T01:16:07.980Z,7.24
2018-01-30T01:18:36.748Z,7.55
2018-01-30T01:21:05.239Z,7.72
2018-01-30T01:23:33.737Z,8.01
2018-01-30T01:26:02.547Z,8.16
2018-01-30T01:28:31.793Z,8.31
2018-01-30T01:31:00.276Z,8.29
2018-01-30T01:33:28.828Z,8.09
2018-01-30T01:35:57.325Z,8.25
2018-01-30T01:38:25.876Z,8.20
2018-01-30T01:40:55.570Z,8.29
2018-01-30T01:43:24.904Z,8.41
2018-01-30T01:45:53.387Z,8.29
2018-01-30T01:48:21.935Z,8.41
2018-01-30T01:50:51.240Z,8.25
2018-01-30T01:53:19.720Z,8.13
2018-01-30T01:55:49.288Z,7.80
2018-01-30T01:58:17.783Z,7.75
2018-01-30T02:00:46.279Z,7.58
2018-01-30T02:03:14.822Z,7.58
2018-01-30T02:05:43.315Z,7.57
2018-01-30T02:08:11.802Z,7.45
2018-01-30T02:10:40.712Z,7.50
2018-01-30T02:13:09.203Z,7.53
2018-01-30T02:15:38.475Z,7.57
2018-01-30T02:18:07.063Z,7.59
2018-01-30T02:20:35.554Z,7.85
2018-01-30T02:23:04.032Z,8.03
2018-01-30T02:25:32.572Z,7.67
2018-01-30T02:28:01.125Z,6.56
2018-01-30T02:30:30.430Z,5.67
2018-01-30T02:32:59.739Z,5.64
2018-01-30T02:35:28.236Z,5.49
2018-01-30T02:37:56.730Z,5.50
2018-01-30T02:40:25.263Z,5.47
2018-01-30T02:42:54.521Z,5.57
2018-01-30T02:45:23.007Z,5.62
2018-01-30T02:47:51.852Z,5.60
2018-01-30T02:50:20.413Z,5.67
2018-01-30T02:52:49.714Z,5.54
2018-01-30T02:55:19.284Z,5.46
2018-01-30T02:57:47.833Z,5.22
2018-01-30T03:00:16.367Z,4.64
2018-01-30T03:02:44.955Z,4.61
2018-01-30T03:05:13.434Z,4.50
2018-01-30T03:07:41.991Z,4.59
2018-01-30T03:10:10.531Z,4.63
2018-01-30T03:12:39.795Z,4.68
2018-01-30T03:15:08.283Z,4.87
2018-01-30T03:17:36.818Z,5.09
2018-01-30T03:20:05.320Z,5.24
2018-01-30T03:22:33.867Z,5.03
2018-01-30T03:25:02.740Z,4.85
2018-01-30T03:27:32.043Z,4.81
2018-01-30T03:30:01.304Z,4.76
2018-01-30T03:32:29.855Z,4.70
2018-01-30T03:34:58.349Z,4.92
2018-01-30T03:37:26.906Z,5.18
2018-01-30T03:39:55.500Z,4.85
2018-01-30T03:42:23.988Z,4.57
2018-01-30T03:44:52.499Z,4.51
2018-01-30T03:47:21.096Z,4.62
2018-01-30T03:49:49.595Z,4.66
2018-01-30T03:52:18.872Z,4.70
2018-01-30T03:54:47.468Z,4.62
2018-01-30T03:57:16.795Z,4.82
2018-01-30T03:59:45.275Z,4.97
2018-01-30T04:02:14.678Z,5.03
2018-01-30T04:04:43.239Z,4.81
2018-01-30T04:07:11.740Z,4.87
2018-01-30T04:09:41.155Z,4.99
2018-01-30T04:12:09.715Z,4.99
2018-01-30T04:14:39.007Z,5.09
2018-01-30T04:17:07.762Z,5.04
2018-01-30T04:19:36.256Z,4.91
2018-01-30T04:22:04.759Z,4.99
2018-01-30T04:24:34.063Z,5.08
2018-01-30T04:27:03.319Z,5.00
2018-01-30T04:29:31.806Z,4.91
2018-01-30T04:32:00.527Z,4.96
2018-01-30T04:34:29.795Z,5.11
2018-01-30T04:36:58.283Z,5.12
2018-01-30T04:39:26.824Z,5.09
2018-01-30T04:41:55.384Z,5.17
2018-01-30T04:44:24.647Z,5.20
2018-01-30T04:46:53.568Z,5.07
2018-01-30T04:49:22.895Z,5.19
2018-01-30T04:51:51.383Z,5.19
2018-01-30T04:54:20.127Z,5.12
2018-01-30T04:56:48.632Z,5.05
2018-01-30T04:59:17.123Z,5.10
2018-01-30T05:01:45.666Z,5.11
2018-01-30T05:04:14.167Z,5.05
2018-01-30T05:06:43.428Z,5.16
2018-01-30T05:09:12.114Z,5.18
2018-01-30T05:11:40.674Z,5.21
2018-01-30T05:14:09.295Z,5.17
2018-01-30T05:16:38.011Z,5.14
2018-01-30T05:19:07.293Z,5.29
2018-01-30T05:21:35.834Z,5.19
2018-01-30T05:24:04.409Z,5.29
2018-01-30T05:26:32.975Z,5.12
2018-01-30T05:29:01.473Z,5.15
2018-01-30T05:31:30.115Z,4.90
2018-01-30T05:33:59.374Z,4.27
2018-01-30T05:36:27.927Z,4.35
2018-01-30T05:38:58.951Z,4.32
2018-01-30T05:41:28.275Z,4.18
2018-01-30T05:43:56.832Z,4.20
2018-01-30T05:46:26.143Z,3.75
2018-01-30T05:48:55.466Z,3.54
2018-01-30T05:51:24.026Z,3.60
2018-01-30T05:53:52.619Z,3.53
2018-01-30T05:56:21.116Z,3.52
2018-01-30T05:58:49.615Z,3.48
2018-01-30T06:01:18.439Z,3.62
2018-01-30T06:03:47.703Z,3.82
2018-01-30T06:06:16.204Z,3.90
2018-01-30T06:08:44.743Z,4.11
2018-01-30T06:11:13.232Z,4.51
2018-01-30T06:13:41.714Z,4.95
2018-01-30T06:16:10.310Z,5.32
2018-01-30T06:18:38.851Z,5.64
2018-01-30T06:21:07.330Z,5.88
2018-01-30T06:23:37.048Z,5.89
2018-01-30T06:26:05.616Z,6.18
2018-01-30T06:28:34.935Z,6.68
2018-01-30T06:31:03.470Z,7.32
2018-01-30T06:33:32.094Z,7.82
2018-01-30T06:36:01.543Z,7.97
2018-01-30T06:38:30.567Z,8.34
2018-01-30T06:40:59.934Z,8.47
2018-01-30T06:43:28.419Z,8.82
2018-01-30T06:45:57.110Z,8.89
2018-01-30T06:48:26.243Z,9.44
2018-01-30T06:50:55.491Z,9.53
2018-01-30T06:53:24.223Z,10.06
2018-01-30T06:55:54.252Z,10.05
2018-01-30T06:58:23.524Z,10.61
2018-01-30T07:00:52.120Z,9.89
2018-01-30T07:03:21.439Z,10.77
2018-01-30T07:05:50.712Z,10.80
2018-01-30T07:08:19.463Z,11.43
2018-01-30T07:10:47.951Z,11.44
2018-01-30T07:13:16.433Z,11.50
2018-01-30T07:15:45.022Z,11.60
2018-01-30T07:18:13.523Z,11.45
2018-01-30T07:20:42.081Z,12.00
2018-01-30T07:23:10.856Z,12.39
2018-01-30T07:25:39.562Z,12.65
2018-01-30T07:28:08.040Z,12.69
2018-01-30T07:30:36.882Z,12.69
2018-01-30T07:33:06.125Z,12.75
2018-01-30T07:35:34.611Z,12.82
2018-01-30T07:38:03.244Z,12.96
2018-01-30T07:40:32.598Z,13.90
2018-01-30T07:43:01.088Z,14.47
2018-01-30T07:45:29.684Z,13.96
2018-01-30T07:47:58.187Z,14.32
2018-01-30T07:50:27.439Z,13.76
2018-01-30T07:52:55.976Z,14.31
2018-01-30T07:55:25.255Z,14.91
2018-01-30T07:57:53.753Z,15.18
2018-01-30T08:00:23.305Z,15.14
2018-01-30T08:02:51.814Z,15.88
2018-01-30T08:05:20.407Z,15.85
2018-01-30T08:07:49.899Z,16.10
2018-01-30T08:10:18.497Z,15.87
2018-01-30T08:12:47.048Z,15.68
2018-01-30T08:15:15.833Z,16.35
2018-01-30T08:17:44.324Z,16.39
2018-01-30T08:20:12.823Z,16.83
2018-01-30T08:22:42.299Z,16.46
2018-01-30T08:25:10.856Z,16.55
2018-01-30T08:27:39.403Z,16.77
2018-01-30T08:30:09.126Z,17.12
2018-01-30T08:32:38.450Z,17.03
2018-01-30T08:35:06.986Z,18.05
2018-01-30T08:37:35.679Z,17.10
2018-01-30T08:40:04.173Z,17.45
2018-01-30T08:42:32.728Z,17.46
2018-01-30T08:45:02.131Z,17.66
2018-01-30T08:47:30.692Z,17.09
2018-01-30T08:49:59.979Z,18.10
2018-01-30T08:52:28.775Z,17.59
2018-01-30T08:54:57.280Z,18.12
2018-01-30T08:57:25.834Z,18.49
2018-01-30T08:59:54.670Z,18.40
2018-01-30T09:02:23.216Z,19.10
2018-01-30T09:04:51.715Z,19.43
2018-01-30T09:07:20.255Z,19.17
2018-01-30T09:09:48.745Z,19.73
2018-01-30T09:12:17.240Z,19.26
2018-01-30T09:14:46.119Z,19.02
2018-01-30T09:17:14.620Z,19.02
2018-01-30T09:19:43.247Z,19.12
2018-01-30T09:22:11.783Z,19.57
2018-01-30T09:24:40.274Z,19.57
2018-01-30T09:27:08.792Z,19.97
2018-01-30T09:29:37.443Z,20.22
2018-01-30T09:32:06.702Z,20.32
2018-01-30T09:34:35.972Z,20.17
2018-01-30T09:37:05.050Z,19.97
2018-01-30T09:39:34.311Z,20.59
2018-01-30T09:42:02.837Z,20.77
2018-01-30T09:44:32.147Z,20.55
2018-01-30T09:47:01.059Z,21.01
2018-01-30T09:49:29.838Z,20.31
2018-01-30T09:51:58.633Z,19.83
2018-01-30T09:54:27.318Z,20.31
2018-01-30T09:56:55.816Z,20.01
2018-01-30T09:59:24.911Z,21.46
2018-01-30T10:01:54.228Z,21.90
2018-01-30T10:04:23.491Z,21.36
2018-01-30T10:06:52.759Z,21.76
2018-01-30T10:09:21.252Z,22.40
2018-01-30T10:11:49.747Z,21.70
2018-01-30T10:14:18.508Z,21.93
2018-01-30T10:16:46.999Z,21.22
2018-01-30T10:19:15.495Z,21.60
2018-01-30T10:21:45.028Z,21.45
2018-01-30T10:24:14.319Z,21.29
2018-01-30T10:26:43.583Z,22.19
2018-01-30T10:29:12.119Z,22.97
2018-01-30T10:31:40.616Z,22.30
2018-01-30T10:34:10.074Z,21.69
2018-01-30T10:36:38.711Z,22.97
2018-01-30T10:39:07.217Z,22.91
2018-01-30T10:41:36.620Z,23.15
2018-01-30T10:44:05.930Z,22.80
2018-01-30T10:46:34.431Z,23.66
2018-01-30T10:49:03.691Z,23.99
2018-01-30T10:51:32.438Z,23.54
2018-01-30T10:54:00.933Z,23.71
2018-01-30T10:56:29.611Z,23.89
2018-01-30T10:58:58.150Z,24.22
2018-01-30T11:01:27.412Z,24.22
2018-01-30T11:03:55.903Z,24.13
2018-01-30T11:06:24.548Z,23.63
2018-01-30T11:08:53.290Z,23.97
2018-01-30T11:11:22.742Z,24.51
2018-01-30T11:13:51.659Z,24.00
2018-01-30T11:16:20.421Z,24.97
2018-01-30T11:18:48.920Z,24.81
2018-01-30T11:21:17.632Z,25.20
2018-01-30T11:23:47.092Z,24.69
2018-01-30T11:26:15.585Z,23.40
2018-01-30T11:28:45.826Z,23.29
2018-01-30T11:31:14.580Z,23.95
2018-01-30T11:33:43.075Z,24.22
2018-01-30T11:36:11.784Z,23.59
2018-01-30T11:38:41.039Z,24.02
2018-01-30T11:41:09.529Z,23.92
2018-01-30T11:43:38.115Z,24.59
2018-01-30T11:46:06.639Z,24.19
2018-01-30T11:48:36.069Z,24.29
2018-01-30T11:51:04.619Z,24.39
2018-01-30T11:53:33.985Z,24.96
2018-01-30T11:56:02.479Z,25.10
2018-01-30T11:58:31.028Z,25.19
2018-01-30T12:00:59.526Z,24.40
2018-01-30T12:03:28.213Z,25.48
2018-01-30T12:05:56.759Z,25.68
2018-01-30T12:08:25.485Z,25.25
2018-01-30T12:10:53.978Z,25.20
2018-01-30T12:13:23.562Z,25.31
2018-01-30T12:15:52.055Z,25.30
2018-01-30T12:18:20.547Z,25.31
2018-01-30T12:20:49.087Z,25.57
2018-01-30T12:23:17.579Z,25.05
2018-01-30T12:25:46.070Z,25.70
2018-01-30T12:28:14.971Z,25.76
2018-01-30T12:30:43.463Z,25.32
2018-01-30T12:33:11.950Z,24.90
2018-01-30T12:35:40.820Z,25.14
2018-01-30T12:38:09.310Z,25.17
2018-01-30T12:40:37.790Z,24.50
2018-01-30T12:43:06.484Z,24.75
2018-01-30T12:45:34.984Z,24.92
2018-01-30T12:48:04.304Z,24.86
2018-01-30T12:50:33.119Z,25.13
2018-01-30T12:53:01.672Z,25.49
2018-01-30T12:55:31.104Z,25.32
2018-01-30T12:57:59.951Z,24.88
2018-01-30T13:00:29.211Z,25.34
2018-01-30T13:02:57.763Z,25.82
2018-01-30T13:05:26.294Z,25.19
2018-01-30T13:07:54.797Z,25.22
2018-01-30T13:10:23.367Z,24.74
2018-01-30T13:12:51.914Z,24.76
2018-01-30T13:15:20.407Z,25.20
2018-01-30T13:17:48.903Z,25.35
2018-01-30T13:20:17.448Z,24.80
2018-01-30T13:22:45.946Z,24.17
2018-01-30T13:25:14.487Z,24.24
2018-01-30T13:27:43.120Z,24.18
2018-01-30T13:30:11.612Z,24.20
2018-01-30T13:32:40.107Z,24.08
2018-01-30T13:35:08.711Z,24.07
2018-01-30T13:37:37.231Z,23.59
2018-01-30T13:40:05.730Z,23.32
2018-01-30T13:42:34.710Z,23.88
2018-01-30T13:45:03.264Z,23.91
2018-01-30T13:47:31.820Z,24.35
2018-01-30T13:50:01.314Z,24.02
2018-01-30T13:52:29.872Z,24.10
2018-01-30T13:54:58.425Z,24.06
2018-01-30T13:57:27.275Z,24.32
2018-01-30T13:59:55.783Z,24.07
2018-01-30T14:02:24.344Z,23.89
2018-01-30T14:04:53.663Z,24.33
2018-01-30T14:07:22.920Z,23.82
2018-01-30T14:09:51.423Z,23.54
2018-01-30T14:12:20.808Z,23.50
2018-01-30T14:14:49.369Z,23.10
2018-01-30T14:17:17.930Z,22.94
2018-01-30T14:19:46.577Z,22.63
2018-01-30T14:22:15.081Z,22.50
2018-01-30T14:24:43.578Z,22.28
2018-01-30T14:27:12.199Z,22.32
2018-01-30T14:29:40.740Z,22.09
2018-01-30T14:32:10.063Z,21.79
2018-01-30T14:34:38.686Z,21.96
2018-01-30T14:37:07.276Z,21.68
2018-01-30T14:39:35.832Z,21.37
2018-01-30T14:42:04.747Z,21.20
2018-01-30T14:44:33.247Z,21.20
2018-01-30T14:47:01.744Z,21.12
2018-01-30T14:49:30.444Z,20.88
2018-01-30T14:51:59.695Z,20.73
2018-01-30T14:54:28.192Z,20.76
2018-01-30T14:56:56.829Z,20.60
2018-01-30T14:59:25.336Z,20.53
2018-01-30T15:01:54.657Z,20.27
2018-01-30T15:04:24.024Z,20.05
2018-01-30T15:06:52.588Z,20.17
2018-01-30T15:09:21.153Z,20.05
2018-01-30T15:11:49.765Z,20.14
2018-01-30T15:14:19.092Z,19.99
2018-01-30T15:16:47.658Z,19.60
2018-01-30T15:19:17.036Z,19.44
2018-01-30T15:21:45.605Z,19.11
2018-01-30T15:24:14.176Z,18.88
2018-01-30T15:26:42.924Z,18.54
2018-01-30T15:29:12.252Z,18.43
2018-01-30T15:31:40.815Z,18.24
2018-01-30T15:34:09.689Z,18.01
2018-01-30T15:36:39.017Z,18.00
2018-01-30T15:39:07.577Z,17.81
2018-01-30T15:41:37.330Z,17.82
2018-01-30T15:44:05.889Z,17.53
2018-01-30T15:46:34.457Z,17.41
2018-01-30T15:49:03.068Z,17.13
2018-01-30T15:51:31.627Z,16.92
2018-01-30T15:54:00.976Z,16.78
2018-01-30T15:56:29.969Z,16.61
2018-01-30T15:58:58.543Z,16.46
2018-01-30T16:01:27.110Z,16.38
2018-01-30T16:03:56.123Z,16.20
2018-01-30T16:06:24.684Z,15.95
2018-01-30T16:08:53.241Z,15.85
2018-01-30T16:11:21.844Z,15.84
2018-01-30T16:13:50.423Z,15.94
2018-01-30T16:16:18.983Z,15.95
2018-01-30T16:18:48.753Z,15.85
2018-01-30T16:21:17.312Z,15.74
2018-01-30T16:23:45.872Z,15.77
2018-01-30T16:26:14.484Z,15.79
2018-01-30T16:28:43.044Z,15.59
2018-01-30T16:31:11.633Z,15.59
2018-01-30T16:33:40.255Z,15.52
2018-01-30T16:36:08.837Z,15.38
2018-01-30T16:38:37.536Z,15.24
2018-01-30T16:41:06.518Z,14.86
2018-01-30T16:43:35.097Z,14.86
2018-01-30T16:46:03.684Z,15.01
2018-01-30T16:48:32.321Z,15.09
2018-01-30T16:51:00.893Z,15.28
2018-01-30T16:53:29.463Z,15.25
2018-01-30T16:55:58.101Z,15.07
2018-01-30T16:58:26.700Z,14.91
2018-01-30T17:00:56.112Z,14.64
2018-01-30T17:03:25.689Z,14.50
2018-01-30T17:05:54.260Z,14.79
2018-01-30T17:08:22.821Z,14.96
2018-01-30T17:10:51.612Z,14.80
2018-01-30T17:13:20.173Z,14.62
2018-01-30T17:15:48.753Z,14.51
2018-01-30T17:18:17.364Z,14.56
2018-01-30T17:20:45.940Z,14.61
2018-01-30T17:23:14.521Z,14.59
2018-01-30T17:25:44.038Z,14.47
2018-01-30T17:28:12.605Z,14.57
2018-01-30T17:30:41.935Z,14.58
2018-01-30T17:33:10.552Z,14.51
2018-01-30T17:35:39.119Z,14.40
2018-01-30T17:38:07.698Z,14.44
2018-01-30T17:40:36.600Z,13.87
2018-01-30T17:43:05.170Z,13.75
2018-01-30T17:45:33.751Z,13.86
2018-01-30T17:48:02.736Z,13.82
2018-01-30T17:50:31.317Z,14.07
2018-01-30T17:52:59.884Z,14.02
2018-01-30T17:55:28.501Z,13.95
2018-01-30T17:57:57.072Z,13.78
2018-01-30T18:00:25.636Z,13.66
2018-01-30T18:02:54.441Z,13.48
2018-01-30T18:05:22.998Z,13.56
2018-01-30T18:07:51.553Z,13.43
2018-01-30T18:10:21.204Z,13.29
2018-01-30T18:12:50.525Z,13.42
2018-01-30T18:15:19.088Z,13.39
2018-01-30T18:17:47.698Z,13.51
2018-01-30T18:20:16.261Z,13.28
2018-01-30T18:22:44.817Z,12.87
2018-01-30T18:25:14.388Z,12.32
2018-01-30T18:27:42.944Z,12.21
2018-01-30T18:30:11.512Z,12.38
2018-01-30T18:32:40.121Z,12.51
2018-01-30T18:35:08.676Z,12.44
2018-01-30T18:37:37.996Z,12.46
2018-01-30T18:40:06.765Z,12.43
2018-01-30T18:42:35.525Z,12.35
2018-01-30T18:45:04.861Z,12.40
2018-01-30T18:47:33.690Z,12.41
2018-01-30T18:50:02.277Z,12.32
2018-01-30T18:52:30.837Z,12.30
2018-01-30T18:55:00.162Z,12.19
2018-01-30T18:57:28.647Z,12.02
2018-01-30T18:59:57.140Z,11.95
2018-01-30T19:02:25.783Z,12.17
2018-01-30T19:04:54.277Z,12.02
2018-01-30T19:07:22.767Z,12.14
2018-01-30T19:09:51.317Z,12.00
2018-01-30T19:12:19.855Z,12.03
2018-01-30T19:14:48.406Z,11.95
2018-01-30T19:17:16.967Z,11.92
2018-01-30T19:19:45.515Z,11.97
2018-01-30T19:22:14.845Z,11.78
2018-01-30T19:24:43.567Z,11.78
2018-01-30T19:27:12.069Z,11.58
2018-01-30T19:29:40.624Z,11.57
2018-01-30T19:32:09.359Z,11.65
2018-01-30T19:34:37.899Z,11.66
2018-01-30T19:37:06.455Z,11.77
2018-01-30T19:39:35.002Z,11.83
2018-01-30T19:42:03.504Z,11.78
2018-01-30T19:44:32.007Z,11.80
2018-01-30T19:47:00.635Z,11.78
2018-01-30T19:49:29.231Z,11.87
2018-01-30T19:51:58.503Z,11.82
2018-01-30T19:54:27.053Z,11.88
2018-01-30T19:56:55.547Z,11.84
2018-01-30T19:59:24.945Z,11.97
2018-01-30T20:01:54.337Z,11.99
2018-01-30T20:04:22.901Z,12.07
2018-01-30T20:06:52.418Z,12.21
2018-01-30T20:09:21.055Z,11.90
2018-01-30T20:11:49.600Z,11.87
2018-01-30T20:14:18.115Z,11.86
2018-01-30T20:16:47.607Z,11.67
2018-01-30T20:19:16.932Z,11.68
2018-01-30T20:21:45.425Z,11.34
2018-01-30T20:24:14.275Z,11.13
2018-01-30T20:26:45.583Z,11.02
2018-01-30T20:29:14.130Z,11.37
2018-01-30T20:31:42.685Z,11.42
2018-01-30T20:34:11.180Z,11.51
2018-01-30T20:36:40.447Z,11.50
2018-01-30T20:39:09.000Z,11.63
2018-01-30T20:41:37.523Z,11.72
2018-01-30T20:44:06.035Z,11.75
2018-01-30T20:46:35.359Z,11.51
2018-01-30T20:49:03.908Z,11.29
2018-01-30T20:51:33.179Z,11.33
2018-01-30T20:54:01.719Z,11.32
2018-01-30T20:56:30.259Z,11.35
2018-01-30T20:58:59.583Z,11.29
2018-01-30T21:01:28.192Z,11.28
2018-01-30T21:03:56.747Z,11.43
2018-01-30T21:06:25.251Z,11.55
2018-01-30T21:08:54.045Z,11.53
2018-01-30T21:11:22.543Z,11.56
2018-01-30T21:13:51.088Z,11.62
2018-01-30T21:16:20.015Z,11.77
2018-01-30T21:18:48.576Z,11.75
2018-01-30T21:21:17.188Z,11.77
2018-01-30T21:23:45.880Z,11.80
2018-01-30T21:26:14.400Z,11.82
2018-01-30T21:28:43.663Z,11.83
2018-01-30T21:31:12.256Z,11.82
2018-01-30T21:33:40.769Z,11.84
2018-01-30T21:36:10.081Z,11.86
2018-01-30T21:38:38.619Z,12.02
2018-01-30T21:41:07.172Z,11.72
2018-01-30T21:43:35.667Z,11.69
2018-01-30T21:46:04.299Z,11.75
2018-01-30T21:48:33.545Z,11.64
2018-01-30T21:51:02.038Z,11.66
2018-01-30T21:53:30.599Z,11.65
2018-01-30T21:55:59.148Z,11.55
2018-01-30T21:58:27.639Z,11.63
2018-01-30T22:00:56.992Z,11.63
2018-01-30T22:03:25.487Z,11.62
2018-01-30T22:05:53.993Z,11.87
2018-01-30T22:08:23.296Z,11.64
2018-01-30T22:10:52.554Z,11.69
2018-01-30T22:13:21.044Z,11.53
2018-01-30T22:15:49.589Z,11.79
2018-01-30T22:18:18.136Z,11.81
2018-01-30T22:20:47.399Z,11.84
2018-01-30T22:23:15.941Z,11.80
2018-01-30T22:25:44.491Z,11.87
2018-01-30T22:28:13.807Z,11.85
2018-01-30T22:30:43.177Z,11.67
2018-01-30T22:33:11.671Z,11.52
2018-01-30T22:35:40.154Z,11.43
2018-01-30T22:38:08.747Z,11.39
2018-01-30T22:40:38.064Z,11.32
2018-01-30T22:43:06.555Z,11.13
2018-01-30T22:45:35.186Z,11.08
